East Blacksea — T2ZH3 — position and weather

sailwx.info

Track history (hours):
 
Tides and Currents Weather Stations Pressure Air Temp Water Temp Dewpoint Dewpoint Depression Visibility Wind Speed Wind Dir Waves Ship Positions

East Blacksea

Last reported at 2016-Apr-19 07:19 UTC. Time now 2016-May-03 10:32 UTC.
Position N 43°37' W 005°60'.
Warning: this ship's position is 14 days out of date.

Length 69 m; draft 3.5 m.

Type: Cargo ship. MMSI: 572341210.

Date/timePositionNaut miles runAvg speedWind from/ knotsBaromVisibWave heightAir tempDewpointWater temp
2016-Apr-19 07:19N 43°37' W 005°60'1 0.0
2016-Apr-17 16:07N 43°36' W 005°58'4 7.1
2016-Apr-17 15:33N 43°38' W 006°03'  
2016-Apr-14 18:33N 39°13' W 009°50'7 7.5
2016-Apr-14 17:33N 39°06' W 009°51'8 7.7
2016-Apr-14 16:33N 38°58' W 009°50'8 7.8
2016-Apr-14 15:33N 38°50' W 009°51'8 7.7
2016-Apr-14 14:33N 38°42' W 009°51'7 7.3
2016-Apr-14 13:33N 38°35' W 009°49'4 3.9
2016-Apr-14 12:33N 38°32' W 009°46'5 4.7
2016-Apr-14 11:33N 38°35' W 009°41'6 5.7
2016-Apr-14 10:33N 38°29' W 009°39'4 4.1
2016-Apr-14 09:33N 38°31' W 009°35'3 3.1
2016-Apr-14 08:33N 38°30' W 009°31'4 4.5
2016-Apr-14 07:33N 38°27' W 009°27'4 4.0
2016-Apr-14 06:33N 38°27' W 009°22'8 7.6
2016-Apr-14 05:33N 38°19' W 009°20'5 4.5
2016-Apr-14 04:33N 38°19' W 009°14'5 5.0
2016-Apr-14 03:33N 38°20' W 009°08'6 6.1
2016-Apr-14 02:33N 38°21' W 009°00'1 0.7
2016-Apr-14 01:33N 38°21' W 008°60'5 4.5
2016-Apr-14 00:32N 38°18' W 009°04'5 4.9
2016-Apr-13 23:33N 38°21' W 008°59'1 0.9
2016-Apr-13 22:33N 38°21' W 008°58'5 4.9
2016-Apr-13 21:33N 38°19' W 009°04'3 3.3
2016-Apr-13 20:33N 38°20' W 009°00'2 1.8
2016-Apr-13 19:33N 38°21' W 008°58'6 5.9
2016-Apr-13 18:33N 38°18' W 009°04'4 4.3
2016-Apr-13 17:33N 38°21' W 008°60'2 1.5
2016-Apr-13 16:33N 38°21' W 008°58'6 5.9
2016-Apr-13 15:33N 38°18' W 009°04'5 5.4
2016-Apr-13 14:33N 38°21' W 008°58'1 1.3
2016-Apr-13 13:32N 38°20' W 008°60'3 3.0
2016-Apr-13 12:33N 38°19' W 009°03'6 5.7
2016-Apr-13 11:33N 38°21' W 008°57'6 5.6
2016-Apr-13 10:33N 38°19' W 009°03'2 2.0
2016-Apr-13 09:33N 38°20' W 009°01'2 2.3
2016-Apr-13 08:32N 38°21' W 008°58'5 5.1
2016-Apr-13 07:33N 38°19' W 009°04'4 4.2
2016-Apr-13 06:33N 38°20' W 008°59'1 0.7
2016-Apr-13 05:33N 38°20' W 008°59'5 5.1
2016-Apr-13 04:33N 38°18' W 009°04'5 4.5
2016-Apr-13 03:33N 38°20' W 008°59'2 1.9
2016-Apr-13 02:33N 38°21' W 008°57'5 5.2
2016-Apr-13 01:33N 38°19' W 009°03'3 2.9
2016-Apr-13 00:33N 38°20' W 008°60'3 2.8
2016-Apr-12 23:33N 38°22' W 008°57'5 5.1
2016-Apr-12 22:33N 38°19' W 009°02'0 0.3
2016-Apr-12 21:33N 38°20' W 009°02'3 2.7
2016-Apr-12 20:33N 38°21' W 008°59'1 1.4
2016-Apr-12 19:33N 38°22' W 008°58'5 5.2
2016-Apr-12 18:33N 38°19' W 009°03'2 2.3
2016-Apr-12 17:33N 38°20' W 009°01'3 3.1
2016-Apr-12 16:33N 38°22' W 008°57'3 3.0
2016-Apr-12 15:33N 38°20' W 009°01'1 1.3
2016-Apr-12 14:33N 38°20' W 009°02'3 2.9
2016-Apr-12 13:33N 38°21' W 008°59'1 1.3
2016-Apr-12 12:33N 38°21' W 008°58'5 5.2
2016-Apr-12 11:32N 38°19' W 009°04'2 2.0
2016-Apr-12 10:33N 38°20' W 009°01'3 3.2
2016-Apr-12 09:32N 38°21' W 008°57'2 2.5
2016-Apr-12 08:33N 38°20' W 009°00'2 1.8
2016-Apr-12 07:33N 38°20' W 009°03'4 3.7
2016-Apr-12 06:33N 38°21' W 008°58'2 2.3
2016-Apr-12 05:33N 38°20' W 009°01'1 0.6
2016-Apr-12 04:33N 38°20' W 009°00'3 3.0
2016-Apr-12 03:33N 38°21' W 008°56'4 3.8
2016-Apr-12 02:33N 38°20' W 009°01'1 0.6
2016-Apr-12 01:33N 38°20' W 009°01'1 1.4
2016-Apr-12 00:33N 38°20' W 008°59'4 3.7
2016-Apr-11 23:33N 38°20' W 009°03'3 3.5
2016-Apr-11 22:33N 38°20' W 008°59'2 2.0
2016-Apr-11 21:33N 38°21' W 008°57'0 0.2
2016-Apr-11 20:33N 38°21' W 008°57'1 0.6
2016-Apr-11 19:33N 38°20' W 008°56'5 4.7
2016-Apr-11 18:33N 38°21' W 009°02'6 5.8
2016-Apr-11 17:33N 38°22' W 009°09'7 6.8
2016-Apr-11 16:32N 38°26' W 009°17'7 7.2
2016-Apr-11 15:33N 38°31' W 009°23'1 0.9
2016-Apr-11 14:33N 38°30' W 009°24'7 7.2
2016-Apr-11 13:33N 38°24' W 009°18'6 6.2
2016-Apr-11 12:33N 38°21' W 009°11'6 6.4
2016-Apr-11 11:33N 38°21' W 009°03'1 0.9
2016-Apr-11 10:33N 38°20' W 009°04'2 1.7
2016-Apr-11 09:33N 38°20' W 009°06'1 0.7
2016-Apr-11 08:33N 38°19' W 009°06'5 4.9
2016-Apr-11 07:33N 38°21' W 008°60'5 5.0
2016-Apr-11 06:34N 38°20' W 009°06'1 1.5
2016-Apr-11 05:33N 38°20' W 009°04'4 4.0
2016-Apr-11 04:33N 38°20' W 008°59'4 3.8
2016-Apr-11 03:33N 38°20' W 008°54'5 5.0
2016-Apr-11 02:33N 38°20' W 009°01'5 4.9
2016-Apr-11 01:33N 38°20' W 009°07'4 3.7
2016-Apr-11 00:33N 38°20' W 009°02'2 2.1
2016-Apr-10 23:33N 38°20' W 008°60'3 2.6
2016-Apr-10 22:33N 38°20' W 008°56'1 1.1
2016-Apr-10 21:33N 38°20' W 008°58'5 5.0
2016-Apr-10 20:33N 38°20' W 009°04'1 1.1
2016-Apr-10 19:33N 38°21' W 009°05'4 3.8
2016-Apr-10 18:33N 38°20' W 009°00'3 3.0
2016-Apr-10 17:33N 38°20' W 008°56'1 0.6
2016-Apr-10 16:33N 38°20' W 008°57'5 4.9
2016-Apr-10 15:33N 38°20' W 009°03'3 2.7
2016-Apr-10 14:33N 38°21' W 009°07'3 2.7
2016-Apr-10 13:33N 38°21' W 009°03'2 2.5
2016-Apr-10 12:33N 38°20' W 009°00'2 2.5
2016-Apr-10 11:33N 38°20' W 008°57'4 3.6
2016-Apr-10 10:33N 38°20' W 009°02'5 4.8
2016-Apr-10 09:33N 38°21' W 009°07'5 5.1
2016-Apr-10 08:33N 38°23' W 009°14'4 4.2
2016-Apr-10 07:33N 38°27' W 009°17'6 6.0
2016-Apr-10 06:33N 38°32' W 009°19'8 7.1
2016-Apr-10 05:29N 38°39' W 009°24'2 2.0
2016-Apr-10 04:33N 38°40' W 009°24'0 0.0
2016-Apr-10 03:30N 38°40' W 009°24'0 0.0
2016-Apr-10 02:33N 38°40' W 009°24'0 0.0
2016-Apr-10 01:33N 38°40' W 009°24'0 0.0
2016-Apr-09 23:27N 38°40' W 009°24'0 0.0
2016-Apr-09 22:03N 38°40' W 009°24'0 0.0
2016-Apr-09 21:03N 38°40' W 009°24'0 0.0
2016-Apr-09 20:27N 38°40' W 009°24'0 0.0
2016-Apr-09 19:09N 38°40' W 009°24'0 0.0
2016-Apr-09 18:27N 38°40' W 009°24'0 0.0
2016-Apr-09 16:24N 38°40' W 009°24'0 0.0
2016-Apr-09 15:12N 38°40' W 009°24'0 0.0
2016-Apr-09 13:06N 38°40' W 009°24'0 0.0
2016-Apr-09 12:24N 38°40' W 009°24'0 0.0
2016-Apr-09 08:27N 38°40' W 009°24'0 0.0
2016-Apr-09 07:33N 38°40' W 009°24'  
Track history (hours):
 
Tides and Currents Weather Stations Pressure Air Temp Water Temp Dewpoint Dewpoint Depression Visibility Wind Speed Wind Dir Waves Ship Positions

East Blacksea

Last reported at 2016-Apr-19 07:19 UTC. Time now 2016-May-03 10:32 UTC.
Position N 43°37' W 005°60'.
Warning: this ship's position is 14 days out of date.

Length 69 m; draft 3.5 m.

Type: Cargo ship. MMSI: 572341210.

Date/timePositionNaut miles runAvg speedWind from/ knotsBaromVisibWave heightAir tempDewpointWater temp
2016-Apr-19 07:19N 43°37' W 005°60'1 0.0
2016-Apr-17 16:07N 43°36' W 005°58'4 7.1
2016-Apr-17 15:33N 43°38' W 006°03'  
2016-Apr-14 18:33N 39°13' W 009°50'7 7.5
2016-Apr-14 17:33N 39°06' W 009°51'8 7.7
2016-Apr-14 16:33N 38°58' W 009°50'8 7.8
2016-Apr-14 15:33N 38°50' W 009°51'8 7.7
2016-Apr-14 14:33N 38°42' W 009°51'7 7.3
2016-Apr-14 13:33N 38°35' W 009°49'4 3.9
2016-Apr-14 12:33N 38°32' W 009°46'5 4.7
2016-Apr-14 11:33N 38°35' W 009°41'6 5.7
2016-Apr-14 10:33N 38°29' W 009°39'4 4.1
2016-Apr-14 09:33N 38°31' W 009°35'3 3.1
2016-Apr-14 08:33N 38°30' W 009°31'4 4.5
2016-Apr-14 07:33N 38°27' W 009°27'4 4.0
2016-Apr-14 06:33N 38°27' W 009°22'8 7.6
2016-Apr-14 05:33N 38°19' W 009°20'5 4.5
2016-Apr-14 04:33N 38°19' W 009°14'5 5.0
2016-Apr-14 03:33N 38°20' W 009°08'6 6.1
2016-Apr-14 02:33N 38°21' W 009°00'1 0.7
2016-Apr-14 01:33N 38°21' W 008°60'5 4.5
2016-Apr-14 00:32N 38°18' W 009°04'5 4.9
2016-Apr-13 23:33N 38°21' W 008°59'1 0.9
2016-Apr-13 22:33N 38°21' W 008°58'5 4.9
2016-Apr-13 21:33N 38°19' W 009°04'3 3.3
2016-Apr-13 20:33N 38°20' W 009°00'2 1.8
2016-Apr-13 19:33N 38°21' W 008°58'6 5.9
2016-Apr-13 18:33N 38°18' W 009°04'4 4.3
2016-Apr-13 17:33N 38°21' W 008°60'2 1.5
2016-Apr-13 16:33N 38°21' W 008°58'6 5.9
2016-Apr-13 15:33N 38°18' W 009°04'5 5.4
2016-Apr-13 14:33N 38°21' W 008°58'1 1.3
2016-Apr-13 13:32N 38°20' W 008°60'3 3.0
2016-Apr-13 12:33N 38°19' W 009°03'6 5.7
2016-Apr-13 11:33N 38°21' W 008°57'6 5.6
2016-Apr-13 10:33N 38°19' W 009°03'2 2.0
2016-Apr-13 09:33N 38°20' W 009°01'2 2.3
2016-Apr-13 08:32N 38°21' W 008°58'5 5.1
2016-Apr-13 07:33N 38°19' W 009°04'4 4.2
2016-Apr-13 06:33N 38°20' W 008°59'1 0.7
2016-Apr-13 05:33N 38°20' W 008°59'5 5.1
2016-Apr-13 04:33N 38°18' W 009°04'5 4.5
2016-Apr-13 03:33N 38°20' W 008°59'2 1.9
2016-Apr-13 02:33N 38°21' W 008°57'5 5.2
2016-Apr-13 01:33N 38°19' W 009°03'3 2.9
2016-Apr-13 00:33N 38°20' W 008°60'3 2.8
2016-Apr-12 23:33N 38°22' W 008°57'5 5.1
2016-Apr-12 22:33N 38°19' W 009°02'0 0.3
2016-Apr-12 21:33N 38°20' W 009°02'3 2.7
2016-Apr-12 20:33N 38°21' W 008°59'1 1.4
2016-Apr-12 19:33N 38°22' W 008°58'5 5.2
2016-Apr-12 18:33N 38°19' W 009°03'2 2.3
2016-Apr-12 17:33N 38°20' W 009°01'3 3.1
2016-Apr-12 16:33N 38°22' W 008°57'3 3.0
2016-Apr-12 15:33N 38°20' W 009°01'1 1.3
2016-Apr-12 14:33N 38°20' W 009°02'3 2.9
2016-Apr-12 13:33N 38°21' W 008°59'1 1.3
2016-Apr-12 12:33N 38°21' W 008°58'5 5.2
2016-Apr-12 11:32N 38°19' W 009°04'2 2.0
2016-Apr-12 10:33N 38°20' W 009°01'3 3.2
2016-Apr-12 09:32N 38°21' W 008°57'2 2.5
2016-Apr-12 08:33N 38°20' W 009°00'2 1.8
2016-Apr-12 07:33N 38°20' W 009°03'4 3.7
2016-Apr-12 06:33N 38°21' W 008°58'2 2.3
2016-Apr-12 05:33N 38°20' W 009°01'1 0.6
2016-Apr-12 04:33N 38°20' W 009°00'3 3.0
2016-Apr-12 03:33N 38°21' W 008°56'4 3.8
2016-Apr-12 02:33N 38°20' W 009°01'1 0.6
2016-Apr-12 01:33N 38°20' W 009°01'1 1.4
2016-Apr-12 00:33N 38°20' W 008°59'4 3.7
2016-Apr-11 23:33N 38°20' W 009°03'3 3.5
2016-Apr-11 22:33N 38°20' W 008°59'2 2.0
2016-Apr-11 21:33N 38°21' W 008°57'0 0.2
2016-Apr-11 20:33N 38°21' W 008°57'1 0.6
2016-Apr-11 19:33N 38°20' W 008°56'5 4.7
2016-Apr-11 18:33N 38°21' W 009°02'6 5.8
2016-Apr-11 17:33N 38°22' W 009°09'7 6.8
2016-Apr-11 16:32N 38°26' W 009°17'7 7.2
2016-Apr-11 15:33N 38°31' W 009°23'1 0.9
2016-Apr-11 14:33N 38°30' W 009°24'7 7.2
2016-Apr-11 13:33N 38°24' W 009°18'6 6.2
2016-Apr-11 12:33N 38°21' W 009°11'6 6.4
2016-Apr-11 11:33N 38°21' W 009°03'1 0.9
2016-Apr-11 10:33N 38°20' W 009°04'2 1.7
2016-Apr-11 09:33N 38°20' W 009°06'1 0.7
2016-Apr-11 08:33N 38°19' W 009°06'5 4.9
2016-Apr-11 07:33N 38°21' W 008°60'5 5.0
2016-Apr-11 06:34N 38°20' W 009°06'1 1.5
2016-Apr-11 05:33N 38°20' W 009°04'4 4.0
2016-Apr-11 04:33N 38°20' W 008°59'4 3.8
2016-Apr-11 03:33N 38°20' W 008°54'5 5.0
2016-Apr-11 02:33N 38°20' W 009°01'5 4.9
2016-Apr-11 01:33N 38°20' W 009°07'4 3.7
2016-Apr-11 00:33N 38°20' W 009°02'2 2.1
2016-Apr-10 23:33N 38°20' W 008°60'3 2.6
2016-Apr-10 22:33N 38°20' W 008°56'1 1.1
2016-Apr-10 21:33N 38°20' W 008°58'5 5.0
2016-Apr-10 20:33N 38°20' W 009°04'1 1.1
2016-Apr-10 19:33N 38°21' W 009°05'4 3.8
2016-Apr-10 18:33N 38°20' W 009°00'3 3.0
2016-Apr-10 17:33N 38°20' W 008°56'1 0.6
2016-Apr-10 16:33N 38°20' W 008°57'5 4.9
2016-Apr-10 15:33N 38°20' W 009°03'3 2.7
2016-Apr-10 14:33N 38°21' W 009°07'3 2.7
2016-Apr-10 13:33N 38°21' W 009°03'2 2.5
2016-Apr-10 12:33N 38°20' W 009°00'2 2.5
2016-Apr-10 11:33N 38°20' W 008°57'4 3.6
2016-Apr-10 10:33N 38°20' W 009°02'5 4.8
2016-Apr-10 09:33N 38°21' W 009°07'5 5.1
2016-Apr-10 08:33N 38°23' W 009°14'4 4.2
2016-Apr-10 07:33N 38°27' W 009°17'6 6.0
2016-Apr-10 06:33N 38°32' W 009°19'8 7.1
2016-Apr-10 05:29N 38°39' W 009°24'2 2.0
2016-Apr-10 04:33N 38°40' W 009°24'0 0.0
2016-Apr-10 03:30N 38°40' W 009°24'0 0.0
2016-Apr-10 02:33N 38°40' W 009°24'0 0.0
2016-Apr-10 01:33N 38°40' W 009°24'0 0.0
2016-Apr-09 23:27N 38°40' W 009°24'0 0.0
2016-Apr-09 22:03N 38°40' W 009°24'0 0.0
2016-Apr-09 21:03N 38°40' W 009°24'0 0.0
2016-Apr-09 20:27N 38°40' W 009°24'0 0.0
2016-Apr-09 19:09N 38°40' W 009°24'0 0.0
2016-Apr-09 18:27N 38°40' W 009°24'0 0.0
2016-Apr-09 16:24N 38°40' W 009°24'0 0.0
2016-Apr-09 15:12N 38°40' W 009°24'0 0.0
2016-Apr-09 13:06N 38°40' W 009°24'0 0.0
2016-Apr-09 12:24N 38°40' W 009°24'0 0.0
2016-Apr-09 08:27N 38°40' W 009°24'0 0.0
2016-Apr-09 07:33N 38°40' W 009°24'  

Dump ship's entire track history